createdAt,value
2018-04-06T00:01:20.488Z,5.10
2018-04-06T00:03:50.172Z,5.00
2018-04-06T00:06:17.703Z,4.90
2018-04-06T00:08:45.989Z,4.80
2018-04-06T00:11:13.534Z,4.80
2018-04-06T00:13:41.055Z,4.70
2018-04-06T00:16:08.605Z,4.70
2018-04-06T00:18:37.102Z,4.70
2018-04-06T00:21:04.622Z,4.60
2018-04-06T00:23:32.216Z,4.50
2018-04-06T00:25:59.746Z,4.50
2018-04-06T00:28:27.302Z,4.40
2018-04-06T00:30:55.796Z,4.30
2018-04-06T00:33:23.342Z,4.30
2018-04-06T00:35:51.835Z,4.20
2018-04-06T00:38:19.385Z,4.20
2018-04-06T00:40:46.914Z,4.10
2018-04-06T00:43:15.229Z,4.00
2018-04-06T00:45:42.779Z,4.00
2018-04-06T00:48:10.307Z,4.00
2018-04-06T00:50:38.613Z,3.90
2018-04-06T00:56:05.486Z,3.90
2018-04-06T00:58:33.012Z,3.80
2018-04-06T01:01:00.563Z,3.80
2018-04-06T01:03:28.095Z,3.80
2018-04-06T01:05:55.636Z,3.80
2018-04-06T01:08:23.182Z,3.80
2018-04-06T01:10:50.707Z,3.70
2018-04-06T01:13:18.256Z,3.60
2018-04-06T01:15:46.546Z,3.60
2018-04-06T01:18:14.090Z,3.60
2018-04-06T01:20:41.623Z,3.60
2018-04-06T01:23:09.143Z,3.50
2018-04-06T01:25:36.692Z,3.60
2018-04-06T01:28:04.210Z,3.50
2018-04-06T01:30:31.762Z,3.50
2018-04-06T01:33:00.251Z,3.50
2018-04-06T01:35:28.586Z,3.30
2018-04-06T01:37:56.115Z,3.30
2018-04-06T01:40:23.635Z,3.30
2018-04-06T01:42:51.175Z,3.30
2018-04-06T01:45:18.710Z,3.30
2018-04-06T01:47:46.250Z,3.30
2018-04-06T01:50:14.771Z,3.30
2018-04-06T01:52:42.287Z,3.30
2018-04-06T01:55:09.831Z,3.40
2018-04-06T01:57:38.117Z,3.30
2018-04-06T02:00:06.844Z,3.40
2018-04-06T02:02:34.374Z,3.40
2018-04-06T02:05:01.891Z,3.40
2018-04-06T02:07:30.416Z,3.30
2018-04-06T02:09:57.938Z,3.30
2018-04-06T02:12:26.251Z,3.30
2018-04-06T02:14:53.814Z,3.30
2018-04-06T02:17:21.331Z,3.10
2018-04-06T02:19:48.882Z,3.10
2018-04-06T02:22:16.399Z,3.10
2018-04-06T02:24:44.044Z,3.20
2018-04-06T02:27:11.610Z,3.30
2018-04-06T02:29:39.126Z,3.20
2018-04-06T02:32:07.660Z,3.20
2018-04-06T02:34:35.181Z,3.20
2018-04-06T02:37:02.739Z,3.30
2018-04-06T02:39:30.269Z,3.30
2018-04-06T02:41:57.822Z,3.20
2018-04-06T02:44:25.384Z,3.20
2018-04-06T02:46:54.616Z,3.30
2018-04-06T02:49:22.938Z,3.20
2018-04-06T02:51:50.478Z,3.20
2018-04-06T02:54:17.995Z,3.20
2018-04-06T02:56:45.539Z,3.20
2018-04-06T02:59:13.058Z,3.10
2018-04-06T03:01:40.695Z,3.10
2018-04-06T03:04:08.229Z,3.10
2018-04-06T03:06:35.759Z,3.20
2018-04-06T03:09:03.310Z,3.10
2018-04-06T03:11:30.843Z,3.10
2018-04-06T03:13:58.401Z,2.90
2018-04-06T03:16:25.950Z,2.90
2018-04-06T03:18:53.471Z,3.10
2018-04-06T03:21:21.018Z,3.10
2018-04-06T03:23:48.538Z,3.20
2018-04-06T03:26:16.097Z,3.20
2018-04-06T03:28:43.607Z,3.20
2018-04-06T03:31:11.131Z,3.10
2018-04-06T03:33:40.621Z,3.10
2018-04-06T03:36:08.139Z,3.10
2018-04-06T03:38:37.417Z,3.10
2018-04-06T03:41:05.912Z,3.10
2018-04-06T03:43:33.436Z,3.10
2018-04-06T03:46:01.936Z,3.10
2018-04-06T03:48:29.457Z,3.10
2018-04-06T03:50:57.020Z,3.00
2018-04-06T03:53:24.546Z,3.00
2018-04-06T03:55:52.075Z,3.00
2018-04-06T03:58:19.622Z,3.00
2018-04-06T04:00:47.144Z,3.00
2018-04-06T04:03:15.741Z,3.00
2018-04-06T04:05:43.265Z,3.00
2018-04-06T04:08:11.539Z,3.10
2018-04-06T04:10:41.107Z,3.10
2018-04-06T04:13:08.639Z,3.10
2018-04-06T04:15:36.283Z,3.00
2018-04-06T04:18:03.805Z,3.00
2018-04-06T04:20:31.321Z,3.10
2018-04-06T04:22:58.888Z,3.20
2018-04-06T04:25:26.408Z,3.20
2018-04-06T04:27:55.920Z,3.10
2018-04-06T04:30:23.447Z,3.00
2018-04-06T04:32:50.968Z,3.10
2018-04-06T04:35:19.506Z,3.10
2018-04-06T04:37:47.017Z,3.20
2018-04-06T04:40:15.470Z,3.30
2018-04-06T04:42:42.997Z,3.30
2018-04-06T04:45:10.524Z,3.30
2018-04-06T04:47:38.057Z,3.10
2018-04-06T04:50:07.114Z,3.00
2018-04-06T04:52:34.651Z,3.00
2018-04-06T04:55:02.946Z,3.10
2018-04-06T04:57:30.461Z,3.10
2018-04-06T04:59:58.014Z,3.30
2018-04-06T05:02:25.523Z,3.40
2018-04-06T05:04:53.082Z,3.40
2018-04-06T05:07:21.588Z,3.40
2018-04-06T05:09:49.097Z,3.30
2018-04-06T05:12:16.651Z,3.40
2018-04-06T05:14:44.166Z,3.30
2018-04-06T05:17:11.710Z,3.30
2018-04-06T05:19:39.231Z,3.40
2018-04-06T05:22:06.750Z,3.40
2018-04-06T05:24:36.350Z,3.40
2018-04-06T05:27:03.876Z,3.50
2018-04-06T05:29:32.209Z,3.60
2018-04-06T05:31:59.731Z,3.60
2018-04-06T05:34:28.239Z,3.80
2018-04-06T05:36:55.784Z,4.00
2018-04-06T05:39:23.310Z,4.20
2018-04-06T05:41:51.798Z,4.50
2018-04-06T05:44:19.327Z,4.80
2018-04-06T05:46:48.545Z,4.60
2018-04-06T05:49:16.096Z,4.60
2018-04-06T05:51:43.614Z,4.90
2018-04-06T05:54:11.166Z,5.00
2018-04-06T05:56:39.619Z,4.90
2018-04-06T05:59:09.127Z,4.80
2018-04-06T06:01:36.669Z,4.80
2018-04-06T06:04:04.223Z,4.80
2018-04-06T06:06:32.509Z,4.70
2018-04-06T06:09:00.057Z,4.70
2018-04-06T06:11:29.296Z,4.70
2018-04-06T06:13:56.836Z,4.70
2018-04-06T06:16:24.360Z,5.00
2018-04-06T06:18:52.675Z,5.60
2018-04-06T06:21:20.206Z,5.60
2018-04-06T06:23:48.493Z,6.10
2018-04-06T06:26:16.847Z,6.30
2018-04-06T06:28:45.163Z,6.30
2018-04-06T06:31:12.678Z,6.30
2018-04-06T06:33:40.199Z,6.50
2018-04-06T06:36:07.735Z,6.60
2018-04-06T06:38:35.274Z,6.70
2018-04-06T06:41:02.818Z,6.90
2018-04-06T06:43:30.358Z,7.00
2018-04-06T06:45:57.870Z,7.10
2018-04-06T06:48:25.414Z,7.20
2018-04-06T06:50:52.966Z,7.20
2018-04-06T06:53:21.281Z,7.30
2018-04-06T06:55:48.844Z,7.30
2018-04-06T06:58:16.398Z,7.20
2018-04-06T07:00:43.960Z,7.20
2018-04-06T07:03:11.500Z,7.30
2018-04-06T07:05:39.026Z,7.40
2018-04-06T07:08:06.570Z,7.60
2018-04-06T07:10:34.101Z,7.70
2018-04-06T07:13:01.657Z,7.70
2018-04-06T07:15:29.175Z,7.80
2018-04-06T07:17:56.697Z,7.80
2018-04-06T07:20:24.258Z,8.00
2018-04-06T07:22:51.974Z,8.00
2018-04-06T07:25:19.526Z,7.90
2018-04-06T07:27:47.046Z,8.10
2018-04-06T07:30:14.597Z,8.50
2018-04-06T07:32:42.118Z,8.60
2018-04-06T07:35:10.594Z,8.60
2018-04-06T07:37:38.110Z,8.40
2018-04-06T07:40:05.961Z,8.50
2018-04-06T07:42:33.508Z,8.60
2018-04-06T07:45:01.018Z,8.60
2018-04-06T07:47:28.569Z,8.70
2018-04-06T07:49:56.866Z,9.10
2018-04-06T07:52:24.386Z,9.10
2018-04-06T07:54:52.691Z,9.00
2018-04-06T07:57:20.214Z,9.00
2018-04-06T07:59:47.816Z,8.90
2018-04-06T08:02:15.338Z,9.00
2018-04-06T08:04:42.871Z,9.00
2018-04-06T08:07:10.418Z,9.00
2018-04-06T08:09:37.942Z,9.00
2018-04-06T08:12:05.481Z,9.00
2018-04-06T08:14:33.758Z,9.30
2018-04-06T08:17:02.047Z,9.50
2018-04-06T08:19:29.620Z,9.50
2018-04-06T08:21:57.141Z,9.70
2018-04-06T08:24:25.446Z,9.60
2018-04-06T08:26:53.927Z,9.60
2018-04-06T08:29:21.438Z,9.50
2018-04-06T08:31:48.982Z,9.70
2018-04-06T08:34:16.492Z,9.90
2018-04-06T08:36:44.046Z,10.30
2018-04-06T08:39:12.322Z,10.40
2018-04-06T08:41:39.854Z,10.40
2018-04-06T08:44:09.785Z,10.50
2018-04-06T08:46:37.406Z,10.60
2018-04-06T08:49:04.968Z,10.70
2018-04-06T08:51:32.516Z,10.70
2018-04-06T08:54:00.031Z,10.70
2018-04-06T08:56:27.590Z,10.90
2018-04-06T08:58:55.121Z,10.90
2018-04-06T09:01:22.682Z,10.80
2018-04-06T09:03:50.206Z,10.90
2018-04-06T09:06:17.768Z,10.90
2018-04-06T09:08:45.354Z,11.30
2018-04-06T09:11:12.874Z,11.40
2018-04-06T09:13:40.420Z,11.30
2018-04-06T09:16:07.986Z,11.50
2018-04-06T09:18:35.553Z,11.60
2018-04-06T09:21:04.066Z,11.60
2018-04-06T09:23:31.580Z,11.70
2018-04-06T09:26:00.065Z,12.00
2018-04-06T09:28:27.590Z,12.00
2018-04-06T09:30:55.202Z,12.10
2018-04-06T09:33:22.754Z,12.20
2018-04-06T09:35:50.287Z,12.20
2018-04-06T09:38:17.827Z,12.60
2018-04-06T09:40:46.113Z,12.70
2018-04-06T09:43:14.433Z,12.50
2018-04-06T09:45:42.982Z,12.50
2018-04-06T09:48:10.705Z,12.40
2018-04-06T09:50:39.859Z,12.60
2018-04-06T09:53:07.413Z,12.40
2018-04-06T09:55:34.937Z,12.60
2018-04-06T09:58:02.496Z,12.30
2018-04-06T10:00:32.961Z,12.60
2018-04-06T10:03:03.486Z,12.80
2018-04-06T10:05:31.083Z,12.90
2018-04-06T10:07:58.663Z,13.20
2018-04-06T10:10:26.181Z,13.20
2018-04-06T10:12:53.717Z,13.30
2018-04-06T10:15:21.263Z,13.70
2018-04-06T10:17:48.789Z,13.50
2018-04-06T10:20:16.319Z,13.40
2018-04-06T10:22:43.870Z,13.60
2018-04-06T10:25:11.397Z,13.90
2018-04-06T10:27:38.951Z,14.00
2018-04-06T10:30:06.485Z,13.90
2018-04-06T10:32:34.003Z,14.20
2018-04-06T10:35:01.553Z,14.10
2018-04-06T10:37:30.046Z,14.30
2018-04-06T10:39:57.598Z,14.50
2018-04-06T10:42:25.150Z,14.70
2018-04-06T10:44:52.673Z,14.80
2018-04-06T10:47:20.988Z,15.00
2018-04-06T10:49:48.510Z,15.00
2018-04-06T10:52:16.831Z,15.40
2018-04-06T10:54:45.029Z,15.40
2018-04-06T10:57:13.326Z,15.20
2018-04-06T10:59:40.893Z,15.20
2018-04-06T11:02:08.454Z,15.50
2018-04-06T11:04:36.740Z,15.90
2018-04-06T11:07:04.288Z,15.90
2018-04-06T11:09:32.623Z,15.70
2018-04-06T11:12:00.284Z,15.60
2018-04-06T11:14:28.662Z,15.70
2018-04-06T11:16:56.182Z,15.50
2018-04-06T11:19:23.731Z,15.70
2018-04-06T11:21:52.047Z,15.50
2018-04-06T11:24:19.575Z,15.50
2018-04-06T11:26:47.117Z,15.70
2018-04-06T11:29:14.686Z,15.80
2018-04-06T11:31:42.968Z,15.70
2018-04-06T11:34:10.486Z,15.70
2018-04-06T11:36:38.034Z,15.30
2018-04-06T11:39:06.495Z,15.20
2018-04-06T11:41:35.986Z,15.80
2018-04-06T11:44:03.522Z,16.10
2018-04-06T11:46:31.054Z,16.30
2018-04-06T11:48:58.603Z,16.10
2018-04-06T11:51:27.096Z,16.10
2018-04-06T11:53:54.642Z,16.30
2018-04-06T11:56:22.170Z,16.20
2018-04-06T11:58:49.720Z,16.40
2018-04-06T12:01:17.266Z,16.40
2018-04-06T12:03:44.786Z,16.80
2018-04-06T12:06:12.321Z,16.70
2018-04-06T12:08:39.903Z,16.70
2018-04-06T12:11:07.516Z,17.00
2018-04-06T12:13:37.028Z,17.10
2018-04-06T12:16:04.569Z,17.30
2018-04-06T12:18:32.116Z,17.60
2018-04-06T12:20:59.641Z,17.30
2018-04-06T12:23:27.182Z,17.60
2018-04-06T12:25:54.823Z,17.70
2018-04-06T12:28:22.382Z,16.90
2018-04-06T12:30:49.898Z,16.90
2018-04-06T12:33:17.446Z,16.80
2018-04-06T12:35:44.965Z,16.90
2018-04-06T12:38:12.484Z,17.10
2018-04-06T12:40:40.804Z,18.20
2018-04-06T12:43:08.377Z,18.20
2018-04-06T12:45:35.894Z,18.60
2018-04-06T12:48:04.866Z,18.80
2018-04-06T12:50:32.398Z,19.30
2018-04-06T12:52:59.959Z,19.40
2018-04-06T12:55:28.267Z,19.80
2018-04-06T12:57:55.846Z,19.80
2018-04-06T13:00:24.307Z,20.10
2018-04-06T13:02:52.592Z,20.40
2018-04-06T13:05:20.143Z,20.40
2018-04-06T13:07:47.658Z,20.40
2018-04-06T13:10:17.209Z,20.40
2018-04-06T13:12:45.662Z,20.40
2018-04-06T13:15:13.190Z,20.50
2018-04-06T13:17:40.741Z,20.80
2018-04-06T13:20:08.269Z,21.10
2018-04-06T13:22:35.830Z,21.20
2018-04-06T13:25:04.327Z,20.90
2018-04-06T13:27:31.854Z,21.20
2018-04-06T13:29:59.411Z,21.30
2018-04-06T13:32:26.922Z,21.30
2018-04-06T13:34:54.465Z,21.40
2018-04-06T13:37:21.987Z,20.80
2018-04-06T13:39:49.537Z,20.40
2018-04-06T13:42:17.068Z,20.80
2018-04-06T13:44:44.622Z,20.90
2018-04-06T13:47:12.149Z,21.50
2018-04-06T13:49:40.642Z,21.60
2018-04-06T13:52:08.205Z,21.90
2018-04-06T13:54:35.732Z,22.10
2018-04-06T13:57:04.053Z,22.60
2018-04-06T13:59:31.583Z,22.60
2018-04-06T14:01:59.104Z,23.00
2018-04-06T14:04:26.665Z,23.00
2018-04-06T14:06:54.969Z,23.00
2018-04-06T14:09:22.558Z,23.00
2018-04-06T14:11:50.087Z,23.40
2018-04-06T14:14:17.626Z,23.60
2018-04-06T14:16:45.186Z,23.60
2018-04-06T14:19:12.699Z,22.70
2018-04-06T14:21:40.258Z,22.90
2018-04-06T14:24:07.804Z,23.40
2018-04-06T14:26:35.341Z,23.80
2018-04-06T14:29:02.902Z,23.90
2018-04-06T14:31:30.435Z,24.00
2018-04-06T14:33:57.982Z,23.50
2018-04-06T14:36:25.510Z,22.70
2018-04-06T14:38:53.097Z,23.20
2018-04-06T14:41:20.606Z,23.70
2018-04-06T14:43:48.126Z,23.50
2018-04-06T14:46:15.673Z,23.80
2018-04-06T14:48:43.194Z,23.80
2018-04-06T14:51:10.714Z,23.90
2018-04-06T14:53:39.031Z,24.50
2018-04-06T14:56:06.552Z,24.50
2018-04-06T14:58:34.117Z,24.70
2018-04-06T15:01:01.651Z,23.80
2018-04-06T15:03:29.171Z,23.90
2018-04-06T15:05:56.727Z,24.20
2018-04-06T15:08:25.200Z,24.10
2018-04-06T15:10:52.747Z,23.50
2018-04-06T15:13:20.278Z,24.30
2018-04-06T15:15:47.811Z,24.90
2018-04-06T15:18:15.355Z,25.60
2018-04-06T15:20:42.890Z,26.00
2018-04-06T15:23:10.449Z,26.10
2018-04-06T15:25:37.971Z,25.40
2018-04-06T15:28:05.506Z,24.20
2018-04-06T15:30:33.052Z,25.10
2018-04-06T15:33:00.582Z,26.20
2018-04-06T15:35:28.135Z,27.10
2018-04-06T15:37:55.655Z,26.00
2018-04-06T15:40:23.934Z,27.90
2018-04-06T15:42:51.483Z,27.90
2018-04-06T15:45:19.778Z,27.70
2018-04-06T15:47:48.088Z,28.80
2018-04-06T15:50:15.610Z,28.80
2018-04-06T15:52:43.886Z,28.00
2018-04-06T15:55:12.221Z,28.40
2018-04-06T15:57:39.761Z,28.40
2018-04-06T16:00:07.299Z,27.70
2018-04-06T16:02:34.946Z,28.20
2018-04-06T16:05:03.234Z,27.70
2018-04-06T16:07:30.768Z,27.70
2018-04-06T16:09:58.376Z,27.10
2018-04-06T16:12:25.919Z,25.10
2018-04-06T16:14:53.482Z,23.80
2018-04-06T16:17:21.018Z,22.20
2018-04-06T16:19:49.307Z,20.80
2018-04-06T16:22:16.888Z,20.80
2018-04-06T16:24:44.402Z,20.30
2018-04-06T16:27:11.955Z,20.10
2018-04-06T16:29:39.478Z,19.40
2018-04-06T16:32:07.008Z,18.80
2018-04-06T16:34:34.552Z,18.50
2018-04-06T16:37:02.844Z,18.70
2018-04-06T16:39:30.400Z,18.70
2018-04-06T16:41:58.922Z,18.40
2018-04-06T16:44:26.756Z,18.20
2018-04-06T16:46:54.302Z,18.00
2018-04-06T16:49:21.830Z,17.80
2018-04-06T16:51:49.379Z,17.90
2018-04-06T16:54:18.148Z,17.90
2018-04-06T16:56:45.671Z,17.80
2018-04-06T16:59:15.214Z,17.80
2018-04-06T17:01:42.738Z,17.70
2018-04-06T17:04:10.285Z,17.60
2018-04-06T17:06:38.574Z,17.00
2018-04-06T17:09:06.093Z,17.00
2018-04-06T17:11:33.643Z,17.10
2018-04-06T17:14:01.162Z,17.10
2018-04-06T17:16:28.718Z,17.00
2018-04-06T17:18:56.245Z,17.00
2018-04-06T17:21:23.781Z,17.00
2018-04-06T17:23:52.089Z,16.80
2018-04-06T17:26:20.376Z,16.60
2018-04-06T17:28:49.880Z,16.50
2018-04-06T17:31:17.414Z,16.30
2018-04-06T17:33:45.697Z,15.90
2018-04-06T17:36:13.245Z,15.90
2018-04-06T17:38:40.781Z,15.80
2018-04-06T17:41:08.346Z,15.60
2018-04-06T17:43:35.927Z,15.50
2018-04-06T17:46:04.422Z,15.10
2018-04-06T17:48:31.997Z,15.10
2018-04-06T17:50:59.546Z,14.90
2018-04-06T17:53:27.102Z,14.80
2018-04-06T17:55:54.686Z,14.70
2018-04-06T17:58:22.206Z,14.50
2018-04-06T18:00:50.531Z,14.20
2018-04-06T18:03:18.058Z,14.10
2018-04-06T18:05:45.610Z,14.10
2018-04-06T18:08:13.148Z,14.00
2018-04-06T18:10:40.667Z,13.80
2018-04-06T18:13:10.158Z,13.70
2018-04-06T18:15:37.678Z,13.60
2018-04-06T18:18:05.997Z,13.40
2018-04-06T18:20:33.516Z,13.40
2018-04-06T18:23:01.034Z,13.30
2018-04-06T18:25:28.633Z,13.20
2018-04-06T18:27:56.160Z,13.00
2018-04-06T18:30:23.718Z,12.90
2018-04-06T18:32:51.235Z,12.80
2018-04-06T18:35:18.759Z,12.70
2018-04-06T18:37:46.309Z,12.60
2018-04-06T18:40:13.842Z,12.50
2018-04-06T18:42:41.490Z,12.40
2018-04-06T18:45:09.037Z,12.30
2018-04-06T18:47:36.558Z,12.20
2018-04-06T18:50:04.102Z,12.10
2018-04-06T18:52:31.618Z,12.10
2018-04-06T18:54:59.162Z,12.00
2018-04-06T18:57:26.693Z,11.90
2018-04-06T18:59:54.209Z,11.80
2018-04-06T19:02:21.752Z,11.70
2018-04-06T19:04:49.272Z,11.60
2018-04-06T19:07:16.822Z,11.50
2018-04-06T19:09:44.345Z,11.50
2018-04-06T19:12:11.874Z,11.40
2018-04-06T19:14:39.434Z,11.40
2018-04-06T19:17:07.009Z,11.20
2018-04-06T19:19:34.607Z,11.20
2018-04-06T19:22:02.167Z,11.10
2018-04-06T19:24:30.544Z,10.90
2018-04-06T19:26:58.094Z,10.90
2018-04-06T19:29:25.614Z,10.90
2018-04-06T19:31:54.191Z,10.70
2018-04-06T19:34:21.734Z,10.60
2018-04-06T19:36:50.030Z,10.50
2018-04-06T19:39:17.595Z,10.40
2018-04-06T19:41:45.120Z,10.40
2018-04-06T19:44:12.666Z,10.40
2018-04-06T19:46:41.143Z,10.40
2018-04-06T19:49:08.702Z,10.40
2018-04-06T19:51:36.225Z,10.30
2018-04-06T19:54:03.742Z,10.20
2018-04-06T19:56:32.116Z,10.30
2018-04-06T19:58:59.630Z,10.30
2018-04-06T20:01:27.185Z,10.30
2018-04-06T20:03:54.713Z,10.20
2018-04-06T20:06:22.243Z,10.10
2018-04-06T20:08:50.602Z,10.10
2018-04-06T20:11:18.133Z,10.10
2018-04-06T20:13:45.694Z,10.10
2018-04-06T20:16:13.306Z,10.10
2018-04-06T20:18:43.606Z,10.00
2018-04-06T20:21:11.154Z,10.00
2018-04-06T20:23:38.770Z,10.00
2018-04-06T20:26:06.304Z,9.90
2018-04-06T20:28:34.620Z,9.80
2018-04-06T20:31:02.182Z,9.80
2018-04-06T20:33:29.706Z,9.80
2018-04-06T20:35:57.267Z,9.90
2018-04-06T20:38:24.782Z,9.90
2018-04-06T20:40:52.355Z,9.90
2018-04-06T20:43:19.875Z,9.90
2018-04-06T20:45:47.403Z,9.90
2018-04-06T20:48:14.966Z,9.80
2018-04-06T20:50:43.284Z,9.90
2018-04-06T20:53:10.833Z,9.90
2018-04-06T20:55:38.354Z,9.90
2018-04-06T20:58:06.642Z,9.80
2018-04-06T21:00:34.186Z,9.80
2018-04-06T21:03:02.475Z,9.70
2018-04-06T21:05:30.034Z,9.70
2018-04-06T21:07:57.558Z,9.60
2018-04-06T21:10:25.868Z,9.40
2018-04-06T21:12:53.408Z,9.30
2018-04-06T21:15:21.710Z,9.30
2018-04-06T21:17:49.259Z,9.30
2018-04-06T21:20:16.786Z,9.30
2018-04-06T21:22:45.073Z,9.20
2018-04-06T21:25:12.638Z,9.10
2018-04-06T21:27:40.933Z,9.00
2018-04-06T21:30:09.374Z,9.00
2018-04-06T21:32:36.922Z,8.90
2018-04-06T21:35:04.453Z,8.90
2018-04-06T21:37:32.000Z,8.90
2018-04-06T21:40:01.816Z,8.80
2018-04-06T21:42:29.498Z,8.90
2018-04-06T21:44:57.038Z,8.90
2018-04-06T21:47:24.567Z,9.00
2018-04-06T21:49:52.881Z,8.90
2018-04-06T21:52:21.379Z,8.90
2018-04-06T21:54:49.846Z,8.90
2018-04-06T21:57:17.406Z,8.90
2018-04-06T21:59:45.887Z,8.90
2018-04-06T22:02:13.430Z,8.90
2018-04-06T22:04:40.942Z,8.90
2018-04-06T22:07:08.521Z,8.90
2018-04-06T22:09:36.046Z,8.90
2018-04-06T22:12:03.561Z,8.80
2018-04-06T22:14:31.102Z,8.80
2018-04-06T22:16:58.623Z,8.90
2018-04-06T22:19:26.152Z,8.80
2018-04-06T22:21:54.704Z,8.70
2018-04-06T22:24:22.238Z,8.70
2018-04-06T22:26:50.546Z,8.60
2018-04-06T22:29:19.047Z,8.60
2018-04-06T22:31:47.546Z,8.50
2018-04-06T22:34:15.119Z,8.50
2018-04-06T22:36:42.843Z,8.50
2018-04-06T22:39:10.412Z,8.50
2018-04-06T22:41:37.942Z,8.60
2018-04-06T22:44:05.468Z,8.70
2018-04-06T22:46:33.011Z,8.70
2018-04-06T22:49:00.529Z,8.70
2018-04-06T22:51:28.082Z,8.60
2018-04-06T22:53:55.605Z,8.50
2018-04-06T22:56:23.114Z,8.40
2018-04-06T22:58:50.664Z,8.40
2018-04-06T23:01:18.178Z,8.40
2018-04-06T23:03:45.726Z,8.40
2018-04-06T23:06:13.258Z,8.30
2018-04-06T23:08:40.771Z,8.10
2018-04-06T23:11:08.315Z,8.10
2018-04-06T23:13:36.832Z,7.90
2018-04-06T23:16:04.387Z,7.80
2018-04-06T23:18:31.915Z,7.70
2018-04-06T23:21:00.455Z,7.60
2018-04-06T23:23:28.006Z,7.50
2018-04-06T23:25:55.522Z,7.40
2018-04-06T23:28:23.066Z,7.60
2018-04-06T23:30:50.597Z,7.50
2018-04-06T23:33:18.145Z,7.50
2018-04-06T23:35:45.668Z,7.50
2018-04-06T23:38:13.210Z,7.60
2018-04-06T23:40:40.742Z,7.60
2018-04-06T23:43:08.265Z,7.60
2018-04-06T23:45:35.806Z,7.50
2018-04-06T23:48:03.325Z,7.50
2018-04-06T23:50:30.883Z,7.50
2018-04-06T23:52:58.402Z,7.50
2018-04-06T23:55:25.974Z,7.60
2018-04-06T23:57:53.497Z,7.60
